createdAt,value
2023-01-07T00:01:40.882Z,16.30
2023-01-07T00:04:11.872Z,17.07
2023-01-07T00:06:41.224Z,17.30
2023-01-07T00:09:14.672Z,16.07
2023-01-07T00:11:42.536Z,15.90
2023-01-07T00:14:12.825Z,16.70
2023-01-07T00:16:40.347Z,15.97
2023-01-07T00:19:10.381Z,17.23
2023-01-07T00:21:37.454Z,16.00
2023-01-07T00:24:09.869Z,16.83
2023-01-07T00:26:38.450Z,16.57
2023-01-07T00:29:06.655Z,16.73
2023-01-07T00:31:39.513Z,16.23
2023-01-07T00:34:09.096Z,17.93
2023-01-07T00:36:41.256Z,17.03
2023-01-07T00:39:18.979Z,16.77
2023-01-07T00:42:05.391Z,16.70
2023-01-07T00:44:33.340Z,16.40
2023-01-07T00:47:00.870Z,16.93
2023-01-07T00:49:27.934Z,18.27
2023-01-07T00:51:54.933Z,18.17
2023-01-07T00:54:21.983Z,16.20
2023-01-07T00:56:49.021Z,18.80
2023-01-07T00:59:16.012Z,18.33
2023-01-07T01:01:43.099Z,19.53
2023-01-07T01:04:10.217Z,18.87
2023-01-07T01:06:37.278Z,19.13
2023-01-07T01:09:04.627Z,19.33
2023-01-07T01:11:31.630Z,19.37
2023-01-07T01:13:58.605Z,20.70
2023-01-07T01:16:25.836Z,20.30
2023-01-07T01:18:52.898Z,21.00
2023-01-07T01:21:19.992Z,21.80
2023-01-07T01:23:47.236Z,21.17
2023-01-07T01:26:17.045Z,22.13
2023-01-07T01:28:45.135Z,21.37
2023-01-07T01:31:12.612Z,23.23
2023-01-07T01:33:40.186Z,21.83
2023-01-07T01:36:11.457Z,22.07
2023-01-07T01:38:38.830Z,24.20
2023-01-07T01:41:07.210Z,23.57
2023-01-07T01:43:38.457Z,22.50
2023-01-07T01:46:17.192Z,22.93
2023-01-07T01:49:06.794Z,24.60
2023-01-07T01:51:40.344Z,23.40
2023-01-07T01:54:12.359Z,23.57
2023-01-07T01:56:44.164Z,22.60
2023-01-07T01:59:19.084Z,23.63
2023-01-07T02:01:47.038Z,22.80
2023-01-07T02:04:18.831Z,24.63
2023-01-07T02:07:01.243Z,22.63
2023-01-07T02:09:28.881Z,22.87
2023-01-07T02:12:35.218Z,26.00
2023-01-07T02:15:22.382Z,24.37
2023-01-07T02:18:00.960Z,25.77
2023-01-07T02:20:35.063Z,24.73
2023-01-07T02:23:26.630Z,24.40
2023-01-07T02:26:14.676Z,25.57
2023-01-07T02:29:36.236Z,25.17
2023-01-07T02:32:16.961Z,24.53
2023-01-07T02:35:10.843Z,24.57
2023-01-07T02:38:23.829Z,25.57
2023-01-07T02:41:06.040Z,25.10
2023-01-07T02:43:41.440Z,24.73
2023-01-07T02:46:21.797Z,22.87
2023-01-07T02:48:49.305Z,22.47
2023-01-07T02:51:16.385Z,23.77
2023-01-07T02:53:47.986Z,23.07
2023-01-07T02:56:42.052Z,22.73
2023-01-07T02:59:44.141Z,22.17
2023-01-07T03:03:02.815Z,22.77
2023-01-07T03:05:45.151Z,21.57
2023-01-07T03:08:46.486Z,22.13
2023-01-07T03:11:14.108Z,22.80
2023-01-07T03:13:58.924Z,22.10
2023-01-07T03:16:53.154Z,23.83
2023-01-07T03:19:32.129Z,22.00
2023-01-07T03:22:01.985Z,23.60
2023-01-07T03:24:31.154Z,21.43
2023-01-07T03:27:01.687Z,22.40
2023-01-07T03:29:32.227Z,21.47
2023-01-07T03:32:13.381Z,23.53
2023-01-07T03:34:41.120Z,22.93
2023-01-07T03:37:15.754Z,24.97
2023-01-07T03:39:44.589Z,23.83
2023-01-07T03:42:32.768Z,24.60
2023-01-07T03:45:00.517Z,20.27
2023-01-07T03:47:29.197Z,22.57
2023-01-07T03:49:56.180Z,22.37
2023-01-07T03:52:23.170Z,22.67
2023-01-07T03:54:50.163Z,23.30
2023-01-07T03:57:17.235Z,23.13
2023-01-07T03:59:44.184Z,22.50
2023-01-07T04:02:11.455Z,22.40
2023-01-07T04:04:38.657Z,23.27
2023-01-07T04:07:05.871Z,22.17
2023-01-07T04:09:32.882Z,21.00
2023-01-07T04:11:59.841Z,21.03
2023-01-07T04:14:27.011Z,22.73
2023-01-07T04:16:54.133Z,22.00
2023-01-07T04:19:22.989Z,21.83
2023-01-07T04:21:49.953Z,22.00
2023-01-07T04:24:16.960Z,20.67
2023-01-07T04:26:43.981Z,21.23
2023-01-07T04:29:11.769Z,21.10
2023-01-07T04:31:38.849Z,23.23
2023-01-07T04:34:06.125Z,22.10
2023-01-07T04:36:33.181Z,20.47
2023-01-07T04:39:00.164Z,21.37
2023-01-07T04:41:27.183Z,20.87
2023-01-07T04:43:54.138Z,20.90
2023-01-07T04:46:21.280Z,20.10
2023-01-07T04:48:48.413Z,20.47
2023-01-07T04:51:16.566Z,20.57
2023-01-07T04:53:43.625Z,20.43
2023-01-07T04:56:10.636Z,20.70
2023-01-07T04:58:37.700Z,20.30
2023-01-07T05:01:05.203Z,20.70
2023-01-07T05:03:34.519Z,19.40
2023-01-07T05:06:01.852Z,19.87
2023-01-07T05:08:28.960Z,20.57
2023-01-07T05:10:56.070Z,19.67
2023-01-07T05:13:24.102Z,20.77
2023-01-07T05:15:51.420Z,19.03
2023-01-07T05:18:19.014Z,19.37
2023-01-07T05:20:50.255Z,20.03
2023-01-07T05:23:17.257Z,19.50
2023-01-07T05:25:44.233Z,19.43
2023-01-07T05:28:12.273Z,19.73
2023-01-07T05:30:39.630Z,18.90
2023-01-07T05:33:07.571Z,18.60
2023-01-07T05:35:35.593Z,21.67
2023-01-07T05:38:02.761Z,20.33
2023-01-07T05:40:29.997Z,18.77
2023-01-07T05:42:57.144Z,19.07
2023-01-07T05:45:24.159Z,18.43
2023-01-07T05:47:51.125Z,17.63
2023-01-07T05:50:18.232Z,16.13
2023-01-07T05:52:45.332Z,17.77
2023-01-07T05:55:12.377Z,17.93
2023-01-07T05:57:39.362Z,16.93
2023-01-07T06:00:07.787Z,15.63
2023-01-07T06:02:34.797Z,15.73
2023-01-07T06:05:01.861Z,17.23
2023-01-07T06:07:28.813Z,16.97
2023-01-07T06:09:55.837Z,15.40
2023-01-07T06:12:22.808Z,16.77
2023-01-07T06:14:49.782Z,16.47
2023-01-07T06:17:16.896Z,15.33
2023-01-07T06:19:43.894Z,15.87
2023-01-07T06:22:10.915Z,15.57
2023-01-07T06:24:38.539Z,16.30
2023-01-07T06:27:05.795Z,14.77
2023-01-07T06:29:32.771Z,15.30
2023-01-07T06:31:59.870Z,13.90
2023-01-07T06:34:26.925Z,14.67
2023-01-07T06:36:54.062Z,14.43
2023-01-07T06:39:21.057Z,15.43
2023-01-07T06:41:48.008Z,15.47
2023-01-07T06:44:15.135Z,13.97
2023-01-07T06:46:42.207Z,14.60
2023-01-07T06:49:09.299Z,15.57
2023-01-07T06:51:36.277Z,15.07
2023-01-07T06:54:03.402Z,15.20
2023-01-07T06:56:30.465Z,13.23
2023-01-07T06:58:57.532Z,15.27
2023-01-07T07:01:24.641Z,14.27
2023-01-07T07:03:51.692Z,16.23
2023-01-07T07:06:18.790Z,15.97
2023-01-07T07:08:45.822Z,16.03
2023-01-07T07:11:12.882Z,15.20
2023-01-07T07:13:39.881Z,15.40
2023-01-07T07:16:07.487Z,16.33
2023-01-07T07:18:34.518Z,16.37
2023-01-07T07:21:01.632Z,15.40
2023-01-07T07:23:28.601Z,16.53
2023-01-07T07:25:55.603Z,15.83
2023-01-07T07:28:22.622Z,16.50
2023-01-07T07:30:49.878Z,15.33
2023-01-07T07:33:19.470Z,16.67
2023-01-07T07:35:47.261Z,17.20
2023-01-07T07:38:14.480Z,18.07
2023-01-07T07:40:41.495Z,17.37
2023-01-07T07:43:10.752Z,16.07
2023-01-07T07:45:41.263Z,17.37
2023-01-07T07:48:09.981Z,15.63
2023-01-07T07:50:37.231Z,16.90
2023-01-07T07:53:04.776Z,16.33
2023-01-07T07:55:31.955Z,18.03
2023-01-07T07:57:59.023Z,16.90
2023-01-07T08:00:26.216Z,17.23
2023-01-07T08:02:53.306Z,17.13
2023-01-07T08:05:20.421Z,18.00
2023-01-07T08:07:47.432Z,16.77
2023-01-07T08:10:14.455Z,17.80
2023-01-07T08:12:41.586Z,17.03
2023-01-07T08:15:09.553Z,17.97
2023-01-07T08:17:36.933Z,17.17
2023-01-07T08:20:05.902Z,16.97
2023-01-07T08:22:35.944Z,15.93
2023-01-07T08:25:03.442Z,18.93
2023-01-07T08:27:30.519Z,17.20
2023-01-07T08:29:57.565Z,16.90
2023-01-07T08:32:24.854Z,17.87
2023-01-07T08:34:51.989Z,17.33
2023-01-07T08:37:19.046Z,16.73
2023-01-07T08:39:46.295Z,17.10
2023-01-07T08:42:13.327Z,16.70
2023-01-07T08:44:40.424Z,15.70
2023-01-07T08:47:07.445Z,17.70
2023-01-07T08:49:34.466Z,17.13
2023-01-07T08:52:01.494Z,16.33
2023-01-07T08:54:28.611Z,17.87
2023-01-07T08:56:55.696Z,16.47
2023-01-07T08:59:22.748Z,16.93
2023-01-07T09:01:50.015Z,16.93
2023-01-07T09:04:17.073Z,16.57
2023-01-07T09:06:44.299Z,16.77
2023-01-07T09:09:12.019Z,16.73
2023-01-07T09:11:39.108Z,17.97
2023-01-07T09:14:06.119Z,18.27
2023-01-07T09:16:33.289Z,18.27
2023-01-07T09:19:00.382Z,17.33
2023-01-07T09:21:27.407Z,17.63
2023-01-07T09:23:54.469Z,17.13
2023-01-07T09:26:21.454Z,18.10
2023-01-07T09:28:48.456Z,16.60
2023-01-07T09:31:15.512Z,16.70
2023-01-07T09:33:43.113Z,18.10
2023-01-07T09:36:10.193Z,16.90
2023-01-07T09:38:37.483Z,16.57
2023-01-07T09:41:04.508Z,16.83
2023-01-07T09:44:00.331Z,17.43
2023-01-07T09:46:29.974Z,15.53
2023-01-07T09:49:02.604Z,15.40
2023-01-07T09:51:38.106Z,14.53
2023-01-07T09:54:14.649Z,14.87
2023-01-07T09:56:41.892Z,14.53
2023-01-07T09:59:12.648Z,16.87
2023-01-07T10:02:20.123Z,14.90
2023-01-07T10:05:20.078Z,15.33
2023-01-07T10:08:29.025Z,15.03
2023-01-07T10:11:45.510Z,13.60
2023-01-07T10:14:51.131Z,15.40
2023-01-07T10:17:54.330Z,14.10
2023-01-07T10:20:47.330Z,16.30
2023-01-07T10:23:21.910Z,16.63
2023-01-07T10:25:53.804Z,15.77
2023-01-07T10:28:29.473Z,15.67
2023-01-07T10:30:57.170Z,16.13
2023-01-07T10:33:31.597Z,16.03
2023-01-07T10:36:26.664Z,16.13
2023-01-07T10:39:20.349Z,14.23
2023-01-07T10:42:29.448Z,15.43
2023-01-07T10:45:40.250Z,13.87
2023-01-07T10:48:21.252Z,13.93
2023-01-07T10:51:14.466Z,15.07
2023-01-07T10:54:01.022Z,14.90
2023-01-07T10:56:42.512Z,14.63
2023-01-07T10:59:19.767Z,14.63
2023-01-07T11:01:57.700Z,13.73
2023-01-07T11:04:25.856Z,13.17
2023-01-07T11:06:55.676Z,14.20
2023-01-07T11:09:42.361Z,14.30
2023-01-07T11:12:34.719Z,14.07
2023-01-07T11:15:14.019Z,14.80
2023-01-07T11:17:52.327Z,14.90
2023-01-07T11:20:50.364Z,15.20
2023-01-07T11:23:29.917Z,16.07
2023-01-07T11:26:34.198Z,17.77
2023-01-07T11:29:31.221Z,15.87
2023-01-07T11:32:03.976Z,15.93
2023-01-07T11:34:46.201Z,16.00
2023-01-07T11:37:46.329Z,16.37
2023-01-07T11:40:13.221Z,16.27
2023-01-07T11:43:17.018Z,15.77
2023-01-07T11:46:21.048Z,15.67
2023-01-07T11:49:04.247Z,16.10
2023-01-07T11:51:40.508Z,16.73
2023-01-07T11:54:28.550Z,16.07
2023-01-07T11:57:26.257Z,16.43
2023-01-07T12:00:16.405Z,16.57
2023-01-07T12:02:43.951Z,15.70
2023-01-07T12:05:27.034Z,16.77
2023-01-07T12:07:56.844Z,16.57
2023-01-07T12:10:38.564Z,15.73
2023-01-07T12:13:18.839Z,17.60
2023-01-07T12:15:58.470Z,16.10
2023-01-07T12:19:10.029Z,15.07
2023-01-07T12:22:07.413Z,16.73
2023-01-07T12:24:56.352Z,17.80
2023-01-07T12:28:14.816Z,17.63
2023-01-07T12:31:17.026Z,15.90
2023-01-07T12:34:20.133Z,16.70
2023-01-07T12:37:02.191Z,16.10
2023-01-07T12:39:40.318Z,16.77
2023-01-07T12:42:23.628Z,16.67
2023-01-07T12:44:56.755Z,15.93
2023-01-07T12:47:50.628Z,16.57
2023-01-07T12:50:41.353Z,16.90
2023-01-07T12:53:25.417Z,17.30
2023-01-07T12:56:00.233Z,17.40
2023-01-07T12:58:56.857Z,17.40
2023-01-07T13:01:30.788Z,18.17
2023-01-07T13:04:18.376Z,18.53
2023-01-07T13:07:05.480Z,19.97
2023-01-07T13:09:58.447Z,17.27
2023-01-07T13:12:48.519Z,19.40
2023-01-07T13:15:33.954Z,21.20
2023-01-07T13:18:18.353Z,19.27
2023-01-07T13:21:14.050Z,19.87
2023-01-07T13:24:56.459Z,20.53
2023-01-07T13:28:20.269Z,21.53
2023-01-07T13:31:27.455Z,19.57
2023-01-07T13:34:04.754Z,21.17
2023-01-07T13:37:02.767Z,20.57
2023-01-07T13:40:07.016Z,21.27
2023-01-07T13:42:39.919Z,21.53
2023-01-07T13:45:23.195Z,21.33
2023-01-07T13:47:57.316Z,21.13
2023-01-07T13:50:35.540Z,22.60
2023-01-07T13:53:39.905Z,24.13
2023-01-07T13:56:18.709Z,25.43
2023-01-07T13:58:55.677Z,25.83
2023-01-07T14:01:34.053Z,25.93
2023-01-07T14:04:04.054Z,25.70
2023-01-07T14:06:39.176Z,27.70
2023-01-07T14:09:11.140Z,27.17
2023-01-07T14:11:42.139Z,25.67
2023-01-07T14:14:53.269Z,23.23
2023-01-07T14:17:27.774Z,20.10
2023-01-07T14:20:18.960Z,20.00
2023-01-07T14:23:20.777Z,22.33
2023-01-07T14:26:18.098Z,19.53
2023-01-07T14:29:12.712Z,19.53
2023-01-07T14:31:39.772Z,17.57
2023-01-07T14:34:26.622Z,18.43
2023-01-07T14:37:06.287Z,18.57
2023-01-07T14:39:46.709Z,18.57
2023-01-07T14:42:19.741Z,17.67
2023-01-07T14:44:50.318Z,19.17
2023-01-07T14:47:45.003Z,18.80
2023-01-07T14:50:56.628Z,18.07
2023-01-07T14:53:57.378Z,19.63
2023-01-07T14:56:54.221Z,18.77
2023-01-07T15:00:00.852Z,20.30
2023-01-07T15:03:08.466Z,20.57
2023-01-07T15:06:11.125Z,20.03
2023-01-07T15:09:05.351Z,20.43
2023-01-07T15:11:52.611Z,19.40
2023-01-07T15:15:07.705Z,18.00
2023-01-07T15:17:38.221Z,18.20
2023-01-07T15:20:06.538Z,17.63
2023-01-07T15:23:20.331Z,17.20
2023-01-07T15:26:08.130Z,18.57
2023-01-07T15:28:51.351Z,16.53
2023-01-07T15:31:42.273Z,17.63
2023-01-07T15:34:17.380Z,17.37
2023-01-07T15:36:49.530Z,18.03
2023-01-07T15:39:24.679Z,18.33
2023-01-07T15:41:55.037Z,19.67
2023-01-07T15:44:41.275Z,18.47
2023-01-07T15:47:36.950Z,19.10
2023-01-07T15:50:25.911Z,17.67
2023-01-07T15:53:05.965Z,18.30
2023-01-07T15:56:10.404Z,16.87
2023-01-07T15:58:48.723Z,17.07
2023-01-07T16:01:22.460Z,17.37
2023-01-07T16:03:54.373Z,15.97
2023-01-07T16:06:33.718Z,14.63
2023-01-07T16:09:25.505Z,15.77
2023-01-07T16:11:52.989Z,15.20
2023-01-07T16:14:26.496Z,14.67
2023-01-07T16:17:14.979Z,15.20
2023-01-07T16:19:42.488Z,15.17
2023-01-07T16:22:15.877Z,15.83
2023-01-07T16:24:52.101Z,15.50
2023-01-07T16:27:30.463Z,16.37
2023-01-07T16:29:59.419Z,15.47
2023-01-07T16:32:27.414Z,14.60
2023-01-07T16:35:46.380Z,14.23
2023-01-07T16:38:17.286Z,13.60
2023-01-07T16:40:46.937Z,14.87
2023-01-07T16:43:30.031Z,14.60
2023-01-07T16:46:37.171Z,16.63
2023-01-07T16:49:21.744Z,15.63
2023-01-07T16:52:05.947Z,15.90
2023-01-07T16:54:40.118Z,14.83
2023-01-07T16:57:13.102Z,14.00
2023-01-07T16:59:53.821Z,14.83
2023-01-07T17:02:48.733Z,14.87
2023-01-07T17:05:29.081Z,15.67
2023-01-07T17:07:59.299Z,14.80
2023-01-07T17:10:40.794Z,13.90
2023-01-07T17:13:35.947Z,15.27
2023-01-07T17:16:32.328Z,14.00
2023-01-07T17:19:26.075Z,15.73
2023-01-07T17:21:54.678Z,15.57
2023-01-07T17:24:46.706Z,15.63
2023-01-07T17:27:28.116Z,15.67
2023-01-07T17:29:55.727Z,15.30
2023-01-07T17:32:24.406Z,15.23
2023-01-07T17:34:51.524Z,16.07
2023-01-07T17:37:18.624Z,15.33
2023-01-07T17:39:46.902Z,14.50
2023-01-07T17:42:44.447Z,14.83
2023-01-07T17:45:17.577Z,14.90
2023-01-07T17:47:45.484Z,14.90
2023-01-07T17:50:14.717Z,15.17
2023-01-07T17:52:45.983Z,13.90
2023-01-07T17:55:21.577Z,15.27
2023-01-07T17:57:48.611Z,15.07
2023-01-07T18:00:20.329Z,15.17
2023-01-07T18:02:51.165Z,14.80
2023-01-07T18:05:24.677Z,14.43
2023-01-07T18:07:53.192Z,15.13
2023-01-07T18:10:29.211Z,14.23
2023-01-07T18:12:56.291Z,13.27
2023-01-07T18:15:27.443Z,14.30
2023-01-07T18:17:54.499Z,14.77
2023-01-07T18:20:22.702Z,14.70
2023-01-07T18:22:50.435Z,15.23
2023-01-07T18:25:22.439Z,14.93
2023-01-07T18:27:52.771Z,14.63
2023-01-07T18:30:22.181Z,14.30
2023-01-07T18:32:52.993Z,15.10
2023-01-07T18:35:20.197Z,15.07
2023-01-07T18:37:50.359Z,14.83
2023-01-07T18:40:18.758Z,13.60
2023-01-07T18:42:45.951Z,15.40
2023-01-07T18:45:13.673Z,14.70
2023-01-07T18:47:42.958Z,16.27
2023-01-07T18:50:10.222Z,14.77
2023-01-07T18:52:41.745Z,15.47
2023-01-07T18:55:11.031Z,15.00
2023-01-07T18:57:38.131Z,15.37
2023-01-07T19:00:06.544Z,14.17
2023-01-07T19:02:33.959Z,15.50
2023-01-07T19:05:01.021Z,14.97
2023-01-07T19:07:30.468Z,15.90
2023-01-07T19:09:57.461Z,13.83
2023-01-07T19:12:24.500Z,14.40
2023-01-07T19:14:51.551Z,15.67
2023-01-07T19:17:18.531Z,14.40
2023-01-07T19:19:48.633Z,16.10
2023-01-07T19:22:16.793Z,16.40
2023-01-07T19:24:44.728Z,16.70
2023-01-07T19:27:12.584Z,18.40
2023-01-07T19:29:39.652Z,18.37
2023-01-07T19:32:06.743Z,19.23
2023-01-07T19:34:33.818Z,19.60
2023-01-07T19:37:00.850Z,21.10
2023-01-07T19:39:27.858Z,23.30
2023-01-07T19:41:54.894Z,24.10
2023-01-07T19:44:21.969Z,23.53
2023-01-07T19:46:48.999Z,23.07
2023-01-07T19:49:16.029Z,24.27
2023-01-07T19:51:44.155Z,22.50
2023-01-07T19:54:16.021Z,25.20
2023-01-07T19:56:43.853Z,22.57
2023-01-07T19:59:11.193Z,24.00
2023-01-07T20:01:38.984Z,22.93
2023-01-07T20:04:08.319Z,24.07
2023-01-07T20:06:41.290Z,22.57
2023-01-07T20:09:11.326Z,23.30
2023-01-07T20:11:39.910Z,23.73
2023-01-07T20:14:10.694Z,23.83
2023-01-07T20:16:39.631Z,24.50
2023-01-07T20:19:07.672Z,24.53
2023-01-07T20:21:34.659Z,25.23
2023-01-07T20:24:02.061Z,25.83
2023-01-07T20:26:31.890Z,25.53
2023-01-07T20:29:00.444Z,26.70
2023-01-07T20:31:29.241Z,26.33
2023-01-07T20:33:57.486Z,27.97
2023-01-07T20:36:29.020Z,27.43
2023-01-07T20:38:56.420Z,27.80
2023-01-07T20:41:26.788Z,27.60
2023-01-07T20:43:59.716Z,28.50
2023-01-07T20:46:29.047Z,28.03
2023-01-07T20:48:57.340Z,27.23
2023-01-07T20:51:25.291Z,27.53
2023-01-07T20:53:52.594Z,28.27
2023-01-07T20:56:22.945Z,25.53
2023-01-07T20:58:51.165Z,27.23
2023-01-07T21:01:22.183Z,26.50
2023-01-07T21:03:49.864Z,24.00
2023-01-07T21:06:19.718Z,24.83
2023-01-07T21:08:48.543Z,26.13
2023-01-07T21:11:21.382Z,27.17
2023-01-07T21:13:50.262Z,25.30
2023-01-07T21:16:18.060Z,24.30
2023-01-07T21:18:45.273Z,24.93
2023-01-07T21:21:19.185Z,24.90
2023-01-07T21:23:47.078Z,23.33
2023-01-07T21:26:15.270Z,25.20
2023-01-07T21:28:44.324Z,23.90
2023-01-07T21:31:14.376Z,22.67
2023-01-07T21:33:41.857Z,24.40
2023-01-07T21:36:19.354Z,24.87
2023-01-07T21:38:47.175Z,24.97
2023-01-07T21:41:17.596Z,25.33
2023-01-07T21:43:45.000Z,24.57
2023-01-07T21:46:12.742Z,24.17
2023-01-07T21:48:44.451Z,23.73
2023-01-07T21:51:20.323Z,24.40
2023-01-07T21:53:47.957Z,24.93
2023-01-07T21:56:17.975Z,22.97
2023-01-07T21:58:46.945Z,23.97
2023-01-07T22:01:15.885Z,24.87
2023-01-07T22:03:49.213Z,25.20
2023-01-07T22:06:20.097Z,24.60
2023-01-07T22:08:47.543Z,25.70
2023-01-07T22:11:17.647Z,25.87
2023-01-07T22:13:44.675Z,26.03
2023-01-07T22:16:11.775Z,25.13
2023-01-07T22:18:38.890Z,24.50
2023-01-07T22:21:06.153Z,27.53
2023-01-07T22:23:33.181Z,25.60
2023-01-07T22:26:05.696Z,27.03
2023-01-07T22:28:35.736Z,25.43
2023-01-07T22:31:32.893Z,27.50
2023-01-07T22:34:00.164Z,26.60
2023-01-07T22:36:45.711Z,26.20
2023-01-07T22:39:25.853Z,26.73
2023-01-07T22:41:56.309Z,26.70
2023-01-07T22:44:45.649Z,26.93
2023-01-07T22:47:17.786Z,26.87
2023-01-07T22:49:45.805Z,26.63
2023-01-07T22:52:12.949Z,26.27
2023-01-07T22:54:40.079Z,26.03
2023-01-07T22:57:11.015Z,26.17
2023-01-07T22:59:38.553Z,25.73
2023-01-07T23:02:06.067Z,27.83
2023-01-07T23:04:33.233Z,25.30
2023-01-07T23:07:00.336Z,26.57
2023-01-07T23:09:27.366Z,28.23
2023-01-07T23:11:59.380Z,25.73
2023-01-07T23:14:28.968Z,26.17
2023-01-07T23:16:57.216Z,25.63
2023-01-07T23:19:24.279Z,26.73
2023-01-07T23:21:53.402Z,25.77
2023-01-07T23:24:21.392Z,26.50
2023-01-07T23:26:51.481Z,27.00
2023-01-07T23:29:19.256Z,25.97
2023-01-07T23:31:46.820Z,27.50
2023-01-07T23:34:16.659Z,26.73
2023-01-07T23:36:43.948Z,25.87
2023-01-07T23:39:11.021Z,27.83
2023-01-07T23:41:37.989Z,27.37
2023-01-07T23:44:05.135Z,27.37
2023-01-07T23:46:32.965Z,26.17
2023-01-07T23:49:00.033Z,26.53
2023-01-07T23:51:27.364Z,26.43
2023-01-07T23:53:54.537Z,26.20
2023-01-07T23:56:22.588Z,27.43
2023-01-07T23:58:50.621Z,26.97
